Weather at Augsburg Airport

Public forecast

Using degrees Celsius for public forecast. Weather courtesy of forecast.io.

Current aviation weather report (METAR) for Augsburg Airport

2024/05/29 11:20 (retrieved 17 minutes ago)

EDMA 291120Z 16007KT 120V240 CAVOK 20/06 Q1015

Closest aviation forecast (TAF) to Augsburg Airport

Closest forecast is Munich Airport, 34.3 nm (63.6 km) E.

2024/05/29 06:27 (retrieved 5 hours ago)

TAF TAF EDDM 290500Z 2906/3012 16003KT CAVOK BECMG 2908/2910 22006KT TEMPO 2918/3008 RA